Time;durP1;ratioP1;P1;durP2;ratioP2;P2;SDS_P1;SDS_P2;PMS_P1;PMS_P2;Temp;Humidity;BMP_temperature;BMP_pressure;BME280_temperature;BME280_humidity;BME280_pressure;Samples;Min_cycle;Max_cycle;Signal;HPM_P1;HPM_P2
2022/10/17 04:31:57;;;;;;;;;8.00;7.00;;;;;18.67;68.50;101331.31;5222732;23;45416;-61
2022/10/17 04:34:22;;;;;;;;;5.33;5.33;;;;;18.67;68.22;101328.63;4979390;28;45889;-61
2022/10/17 04:36:48;;;;;;;;;7.00;7.00;;;;;18.66;68.40;101328.75;4979295;28;66641;-61
2022/10/17 04:39:13;;;;;;;;;10.00;10.00;;;;;18.66;68.32;101342.22;4981250;28;45310;-61
2022/10/17 04:41:38;;;;;;;;;11.00;9.67;;;;;18.65;68.35;101349.41;4951983;28;60410;-61
2022/10/17 04:44:04;;;;;;;;;8.67;7.67;;;;;18.68;68.21;101345.63;4979507;28;56653;-61
2022/10/17 04:46:29;;;;;;;;;5.33;5.33;;;;;18.71;67.96;101345.41;4981074;28;46272;-61
2022/10/17 04:48:54;;;;;;;;;8.00;5.67;;;;;18.73;68.12;101345.31;4980843;28;65509;-61
2022/10/17 04:51:20;;;;;;;;;8.00;8.00;;;;;18.74;68.18;101347.88;4979899;28;45688;-61
2022/10/17 04:53:45;;;;;;;;;8.67;8.00;;;;;18.76;67.87;101351.31;4978755;28;70740;-61
2022/10/17 04:56:17;;;;;;;;;8.67;6.00;;;;;18.79;67.90;101366.41;4981448;28;72681;-61
2022/10/17 04:58:43;;;;;;;;;10.67;7.67;;;;;18.79;67.82;101369.94;4975930;28;45350;-61
2022/10/17 05:01:11;;;;;;;;;9.00;7.67;;;;;18.80;68.03;101368.13;4967185;28;45640;-61
2022/10/17 05:03:36;;;;;;;;;8.33;8.00;;;;;18.80;67.62;101368.13;4979178;28;46292;-61
2022/10/17 05:06:03;;;;;;;;;11.00;10.00;;;;;18.80;67.86;101370.81;4979083;28;45227;-61
2022/10/17 05:08:29;;;;;;;;;10.00;8.00;;;;;18.78;67.38;101387.06;4980001;28;45497;-61
2022/10/17 05:10:54;;;;;;;;;11.00;7.33;;;;;18.76;67.81;101385.47;4977435;28;65279;-61
2022/10/17 05:13:19;;;;;;;;;8.33;8.00;;;;;18.75;67.59;101399.94;4978240;28;70219;-61
2022/10/17 05:15:45;;;;;;;;;6.00;6.00;;;;;18.74;68.07;101395.53;4986858;28;67805;-61
2022/10/17 05:18:10;;;;;;;;;8.00;7.00;;;;;18.72;68.29;101394.78;4990111;28;45377;-61
2022/10/17 05:20:35;;;;;;;;;8.00;8.00;;;;;18.71;68.43;101393.91;4976584;28;45516;-61
2022/10/17 05:23:01;;;;;;;;;6.67;6.67;;;;;18.71;68.53;101403.81;4978154;28;46981;-61
2022/10/17 05:25:26;;;;;;;;;9.00;9.00;;;;;18.68;68.66;101381.53;4973781;28;45609;-61
2022/10/17 05:27:52;;;;;;;;;23.00;19.00;;;;;18.68;68.71;101392.31;4971277;28;66980;-61
2022/10/17 05:30:18;;;;;;;;;11.33;9.00;;;;;18.68;68.20;101392.31;4971805;28;45412;-61
2022/10/17 05:32:43;;;;;;;;;10.33;10.00;;;;;18.68;68.42;101402.22;4979646;28;55354;-61
2022/10/17 05:35:09;;;;;;;;;13.00;11.33;;;;;18.68;68.71;101407.59;4978698;28;45343;-61
2022/10/17 05:37:34;;;;;;;;;12.00;10.00;;;;;18.65;68.61;101400.59;4979816;28;45499;-61
2022/10/17 05:39:59;;;;;;;;;9.00;9.00;;;;;18.66;68.95;101393.41;4958265;28;45584;-61
2022/10/17 05:42:25;;;;;;;;;9.67;8.00;;;;;18.64;68.95;101396.22;4975254;28;45466;-61
2022/10/17 05:44:50;;;;;;;;;7.33;7.33;;;;;18.65;69.04;101402.47;4978658;28;45656;-61
2022/10/17 05:47:15;;;;;;;;;8.67;8.67;;;;;18.65;69.19;101414.06;4977532;28;63645;-61
2022/10/17 05:49:41;;;;;;;;;8.00;8.00;;;;;18.66;69.47;101414.97;4974462;28;70076;-61
2022/10/17 05:52:06;;;;;;;;;10.67;10.67;;;;;18.67;69.43;101409.44;4972213;28;46401;-61
2022/10/17 05:54:32;;;;;;;;;9.67;8.33;;;;;18.67;69.19;101408.59;4978679;28;45465;-61
2022/10/17 05:56:57;;;;;;;;;11.33;10.33;;;;;18.66;69.28;101413.13;4973793;28;62349;-61
2022/10/17 05:59:26;;;;;;;;;10.33;8.00;;;;;18.67;69.71;101392.44;4972671;28;45466;-61
2022/10/17 06:01:52;;;;;;;;;11.33;10.00;;;;;18.66;69.89;101399.63;4975824;28;46106;-62
2022/10/17 06:04:18;;;;;;;;;11.67;10.67;;;;;18.65;69.85;101383.59;4961071;28;45724;-60
2022/10/17 06:06:43;;;;;;;;;13.33;10.67;;;;;18.65;69.98;101380.91;4974178;28;45520;-62
2022/10/17 06:09:14;;;;;;;;;8.67;8.00;;;;;18.65;70.10;101376.34;4976277;28;51695;-62
2022/10/17 06:11:39;;;;;;;;;13.67;11.00;;;;;18.63;70.06;101378.34;4979519;28;45438;-60
2022/10/17 06:14:07;;;;;;;;;12.00;10.00;;;;;18.61;70.03;101379.41;4981090;28;65966;-65
2022/10/17 06:16:32;;;;;;;;;9.33;9.33;;;;;18.60;69.67;101380.38;4981721;28;45412;-62
2022/10/17 06:18:58;;;;;;;;;10.33;9.33;;;;;18.58;70.02;101393.13;4978367;28;45509;-60
2022/10/17 06:21:25;;;;;;;;;10.67;9.00;;;;;18.58;70.44;101406.59;4959407;28;69110;-61
2022/10/17 06:23:51;;;;;;;;;15.67;15.67;;;;;18.58;70.52;101406.59;4981618;28;45401;-64
2022/10/17 06:26:16;;;;;;;;;12.33;12.33;;;;;18.60;70.48;101421.63;4977095;28;45417;-66
2022/10/17 06:28:42;;;;;;;;;14.00;13.00;;;;;18.62;70.20;101417.00;4981958;28;45417;-69
2022/10/17 06:31:09;;;;;;;;;10.00;10.00;;;;;18.62;70.25;101429.63;4980387;28;64914;-69
2022/10/17 06:33:36;;;;;;;;;62.00;44.33;;;;;18.62;70.21;101425.09;4981044;28;45464;-67
2022/10/17 06:36:01;;;;;;;;;12.33;12.33;;;;;18.65;69.74;101440.16;4928872;28;45665;-63
2022/10/17 06:38:27;;;;;;;;;38.33;28.00;;;;;18.65;70.65;101427.53;4979281;28;45509;-65
2022/10/17 06:40:53;;;;;;;;;14.67;10.33;;;;;18.68;70.13;101438.13;4959207;28;47521;-68
2022/10/17 06:43:19;;;;;;;;;11.67;10.33;;;;;18.68;70.17;101438.13;4979157;28;45605;-68
2022/10/17 06:45:45;;;;;;;;;10.33;9.33;;;;;18.70;70.01;101442.53;4978542;28;45368;-66
2022/10/17 06:48:10;;;;;;;;;11.67;10.67;;;;;18.73;70.00;101453.06;4974669;28;45691;-67
2022/10/17 06:50:36;;;;;;;;;15.67;12.33;;;;;18.73;69.50;101453.91;4987974;28;71871;-66
2022/10/17 06:53:01;;;;;;;;;9.67;9.67;;;;;18.74;69.63;101469.13;4977754;28;69743;-67
2022/10/17 06:55:26;;;;;;;;;10.33;9.33;;;;;18.73;70.06;101466.56;4982396;28;45375;-66
2022/10/17 06:57:54;;;;;;;;;10.00;10.00;;;;;18.75;69.63;101478.09;4976392;28;45374;-66
2022/10/17 07:00:19;;;;;;;;;11.33;10.00;;;;;18.71;69.83;101488.22;4982734;28;45579;-66
2022/10/17 07:02:45;;;;;;;;;12.67;12.67;;;;;18.68;69.79;101477.66;4971187;28;45785;-66
2022/10/17 07:05:10;;;;;;;;;13.33;10.33;;;;;18.70;70.11;101488.34;4984258;28;59867;-68
2022/10/17 07:07:36;;;;;;;;;10.33;10.33;;;;;18.72;70.09;101511.50;4977453;28;45461;-66
2022/10/17 07:10:02;;;;;;;;;10.00;9.00;;;;;18.75;69.91;101522.03;4984200;28;66521;-64
2022/10/17 07:12:28;;;;;;;;;12.00;11.00;;;;;18.79;69.80;101510.06;4981650;28;45494;-64
2022/10/17 07:14:53;;;;;;;;;10.67;10.67;;;;;18.84;69.45;101520.53;4986077;28;64324;-64
2022/10/17 07:17:18;;;;;;;;;13.67;10.33;;;;;18.86;69.74;101542.81;4981143;28;67142;-63
2022/10/17 07:19:44;;;;;;;;;12.67;12.33;;;;;18.87;69.61;101555.31;4978861;28;46684;-64
2022/10/17 07:22:10;;;;;;;;;13.00;11.67;;;;;18.89;69.22;101542.63;4975260;28;45475;-63
2022/10/17 07:24:35;;;;;;;;;7.67;7.67;;;;;18.95;68.97;101563.72;4968616;28;46056;-65
2022/10/17 07:27:01;;;;;;;;;8.33;8.33;;;;;18.94;69.15;101561.16;4968341;28;45981;-64
2022/10/17 07:29:26;;;;;;;;;9.00;9.00;;;;;18.97;69.22;101567.19;4976201;28;52427;-64
2022/10/17 07:31:51;;;;;;;;;10.33;10.33;;;;;18.99;69.67;101570.63;4972475;28;65949;-64
2022/10/17 07:34:17;;;;;;;;;13.00;12.00;;;;;19.05;69.10;101573.84;4975074;28;47880;-64
2022/10/17 07:36:43;;;;;;;;;14.67;9.67;;;;;19.12;68.81;101599.38;4978215;28;45243;-64
2022/10/17 07:39:08;;;;;;;;;12.67;10.67;;;;;19.19;68.92;101597.97;4975466;28;45492;-64
2022/10/17 07:41:33;;;;;;;;;9.00;7.67;;;;;19.22;68.58;101592.31;4976761;28;56870;-63
2022/10/17 07:43:59;;;;;;;;;10.33;10.00;;;;;19.25;68.29;101597.47;4973560;28;59054;-64
2022/10/17 07:46:24;;;;;;;;;7.67;5.67;;;;;19.27;68.99;101600.94;4971918;28;69617;-64
2022/10/17 07:48:50;;;;;;;;;9.33;8.67;;;;;19.30;68.36;101605.25;4976706;28;69236;-64
2022/10/17 07:51:17;;;;;;;;;9.33;7.67;;;;;19.30;68.22;101607.94;4976246;28;45359;-64
2022/10/17 07:53:43;;;;;;;;;8.00;7.33;;;;;19.30;68.11;101606.09;4979406;28;45682;-64
2022/10/17 07:56:09;;;;;;;;;7.67;7.00;;;;;19.28;68.24;101613.44;4976786;28;45568;-65
2022/10/17 07:58:36;;;;;;;;;7.33;7.33;;;;;19.30;68.25;101613.34;4976851;28;47235;-65
2022/10/17 08:01:03;;;;;;;;;9.67;8.33;;;;;19.29;68.26;101623.25;4975478;28;45388;-65
2022/10/17 08:03:28;;;;;;;;;8.33;8.33;;;;;19.30;68.72;101634.91;4977769;28;45432;-65
2022/10/17 08:05:58;;;;;;;;;8.67;7.67;;;;;19.31;68.12;101637.47;4974827;28;45614;-65
2022/10/17 08:08:23;;;;;;;;;10.67;6.00;;;;;19.31;68.42;101639.34;4968309;28;45477;-64
2022/10/17 08:10:49;;;;;;;;;8.33;8.33;;;;;19.30;68.19;101645.69;4976416;28;45349;-64
2022/10/17 08:13:14;;;;;;;;;6.33;6.00;;;;;19.28;68.13;101651.22;4976754;28;67535;-63
2022/10/17 08:15:39;;;;;;;;;7.00;6.00;;;;;19.29;68.61;101652.06;4978504;28;56593;-63
2022/10/17 08:18:05;;;;;;;;;9.67;6.67;;;;;19.30;68.69;101659.19;4973893;28;46071;-62
2022/10/17 08:20:30;;;;;;;;;7.67;7.67;;;;;19.36;68.31;101660.56;4977389;28;67650;-63
2022/10/17 08:22:55;;;;;;;;;8.00;6.67;;;;;19.42;68.59;101662.81;4967386;28;65897;-62
2022/10/17 08:25:21;;;;;;;;;6.00;6.00;;;;;19.45;68.04;101673.34;4971650;28;66743;-62
2022/10/17 08:27:46;;;;;;;;;8.33;8.33;;;;;19.48;68.50;101665.06;4977707;28;46188;-63
2022/10/17 08:30:12;;;;;;;;;8.00;6.00;;;;;19.57;68.06;101677.84;4966637;28;45496;-62
2022/10/17 08:32:37;;;;;;;;;8.00;7.67;;;;;19.61;68.34;101687.44;4975179;28;45968;-63
2022/10/17 08:35:03;;;;;;;;;9.33;8.00;;;;;19.69;68.15;101681.47;4973365;28;69931;-62
2022/10/17 08:37:29;;;;;;;;;8.00;8.00;;;;;19.76;68.00;101685.41;4959152;28;47394;-63
2022/10/17 08:39:54;;;;;;;;;7.33;7.33;;;;;19.79;67.40;101695.13;4976236;28;45690;-62
2022/10/17 08:43:08;;;;;;;;;9.67;8.00;;;;;19.86;67.41;101698.28;4977778;28;63348;-63
2022/10/17 08:45:46;;;;;;;;;10.00;7.00;;;;;19.96;67.79;101697.47;4966578;28;45553;-63
2022/10/17 08:48:15;;;;;;;;;8.67;8.00;;;;;20.06;67.13;101689.50;4957045;28;46145;-63
2022/10/17 08:50:55;;;;;;;;;7.67;7.00;;;;;20.14;67.01;101700.59;4952932;28;46896;-63
2022/10/17 08:53:22;;;;;;;;;8.33;6.33;;;;;20.20;67.39;101695.72;4976190;28;45460;-63
2022/10/17 08:55:49;;;;;;;;;2.67;1.33;;;;;20.27;67.06;101711.31;4972629;28;45411;-63
2022/10/17 08:58:21;;;;;;;;;15.67;9.67;;;;;20.24;66.47;101706.13;4955008;28;45446;-63
2022/10/17 09:01:04;;;;;;;;;8.33;7.00;;;;;20.28;66.67;101717.56;4964271;28;46748;-63
2022/10/17 09:04:03;;;;;;;;;8.00;6.00;;;;;20.31;66.32;101720.03;4953038;28;45749;-63
2022/10/17 09:06:38;;;;;;;;;9.25;6.75;;;;;20.34;66.80;101727.91;4970454;28;45496;-63
2022/10/17 09:09:20;;;;;;;;;9.67;8.00;;;;;20.34;66.68;101730.63;4970652;28;45530;-63
2022/10/17 09:12:13;;;;;;;;;10.00;7.67;;;;;20.31;66.43;101738.94;4972163;28;45758;-63
2022/10/17 09:14:59;;;;;;;;;11.00;9.00;;;;;20.30;67.03;101742.63;4956913;28;45642;-63
2022/10/17 09:17:43;;;;;;;;;8.00;6.67;;;;;20.28;66.48;101758.94;4974144;28;45297;-62
2022/10/17 09:20:16;;;;;;;;;8.00;7.00;;;;;20.24;66.98;101760.16;4958416;28;47502;-62
2022/10/17 09:23:05;;;;;;;;;9.50;6.00;;;;;20.20;66.56;101764.06;4971547;28;45382;-62
2022/10/17 09:25:39;;;;;;;;;12.00;8.00;;;;;20.22;67.40;101762.13;4955642;28;45494;-62
2022/10/17 09:28:23;;;;;;;;;15.00;8.33;;;;;20.25;66.97;101780.78;4958314;28;45457;-63
2022/10/17 09:31:00;;;;;;;;;13.00;11.00;;;;;20.23;67.15;101787.28;4972088;28;47691;-62
2022/10/17 09:33:37;;;;;;;;;8.50;7.50;;;;;20.22;66.71;101782.84;4977671;28;45422;-62
2022/10/17 09:36:06;;;;;;;;;6.67;6.67;;;;;20.21;66.55;101798.22;4973801;28;45928;-62
2022/10/17 09:38:48;;;;;;;;;8.67;7.33;;;;;20.20;67.45;101801.03;4976771;28;45592;-62
2022/10/17 09:41:29;;;;;;;;;8.00;7.00;;;;;20.20;67.30;101801.03;4976806;28;46260;-61
2022/10/17 09:44:16;;;;;;;;;2.25;2.00;;;;;20.20;67.30;101801.03;4976010;28;45509;-62
2022/10/17 09:47:07;;;;;;;;;10.33;7.00;;;;;20.17;67.88;101811.09;4968538;28;45297;-62
2022/10/17 09:49:52;;;;;;;;;9.00;7.00;;;;;20.15;67.51;101802.25;4977290;28;45530;-62
2022/10/17 09:52:20;;;;;;;;;7.00;7.00;;;;;20.16;68.65;101801.25;4970749;28;46329;-62
2022/10/17 09:54:47;;;;;;;;;13.00;9.67;;;;;20.22;68.75;101808.06;4976599;28;45460;-62
2022/10/17 09:57:14;;;;;;;;;9.00;8.00;;;;;20.29;68.61;101811.16;4975038;28;45472;-63
2022/10/17 09:59:56;;;;;;;;;6.33;6.33;;;;;20.37;67.96;101807.88;4976747;28;45444;-62
2022/10/17 10:02:23;;;;;;;;;11.00;7.33;;;;;20.44;67.89;101811.81;4976795;28;45774;-62
2022/10/17 10:05:15;;;;;;;;;7.67;7.00;;;;;20.47;68.18;101801.63;4977531;28;45380;-63
2022/10/17 10:07:42;;;;;;;;;6.67;6.67;;;;;20.45;67.64;101808.13;4977160;28;45491;-63
2022/10/17 10:10:24;;;;;;;;;12.67;9.00;;;;;20.40;68.02;101805.81;4975514;28;45487;-63
2022/10/17 10:13:15;;;;;;;;;8.33;8.33;;;;;20.34;67.92;101811.66;4966358;28;47041;-63
2022/10/17 10:15:43;;;;;;;;;9.00;7.67;;;;;20.31;68.08;101815.47;4975212;28;45452;-62
2022/10/17 10:18:24;;;;;;;;;12.33;10.00;;;;;20.29;67.97;101828.19;4977409;28;45592;-63
2022/10/17 10:21:09;;;;;;;;;8.33;8.33;;;;;20.30;68.54;101829.09;4969647;28;45436;-63
2022/10/17 10:23:55;;;;;;;;;14.33;10.33;;;;;20.28;68.46;101826.47;4968129;28;47168;-62
2022/10/17 10:26:29;;;;;;;;;10.67;9.67;;;;;20.27;69.01;101832.88;4966256;28;45827;-64
2022/10/17 10:28:59;;;;;;;;;13.33;11.67;;;;;20.27;68.35;101827.47;4971544;28;45410;-64
2022/10/17 10:31:29;;;;;;;;;14.00;11.00;;;;;20.28;68.79;101834.56;4975041;28;45431;-64
2022/10/17 10:33:55;;;;;;;;;9.67;8.67;;;;;20.28;68.96;101842.69;4955337;28;45865;-64
2022/10/17 10:36:22;;;;;;;;;11.33;9.00;;;;;20.29;68.91;101852.50;4975169;28;45497;-64
2022/10/17 10:38:55;;;;;;;;;10.67;10.00;;;;;20.28;69.12;101864.28;4974125;28;46553;-64
2022/10/17 10:41:20;;;;;;;;;13.33;10.00;;;;;20.30;69.00;101873.16;4974049;28;45710;-63
2022/10/17 10:43:48;;;;;;;;;9.00;7.67;;;;;20.27;69.78;101875.22;4975119;28;45708;-64
2022/10/17 10:46:20;;;;;;;;;11.00;9.67;;;;;20.22;69.75;101878.28;4958485;28;45452;-64
2022/10/17 10:49:02;;;;;;;;;12.00;10.67;;;;;20.21;70.03;101881.06;4971597;28;45588;-63
2022/10/17 10:51:39;;;;;;;;;15.67;10.00;;;;;20.17;70.42;101881.31;4972788;28;45669;-63
2022/10/17 10:54:12;;;;;;;;;12.00;10.33;;;;;20.11;70.21;101867.41;4976105;28;46180;-63
2022/10/17 10:56:45;;;;;;;;;12.00;11.00;;;;;20.10;70.03;101884.56;4979048;28;45492;-63
2022/10/17 10:59:19;;;;;;;;;11.00;11.00;;;;;20.10;70.65;101895.38;4959456;28;45520;-63
2022/10/17 11:02:22;;;;;;;;;12.00;10.00;;;;;20.14;70.15;101895.03;4980074;28;45456;-63
2022/10/17 11:04:55;;;;;;;;;12.33;8.67;;;;;20.17;69.65;101891.25;4979209;28;46088;-63
2022/10/17 11:07:41;;;;;;;;;12.67;11.33;;;;;20.21;71.22;101891.88;4963195;28;45527;-63
2022/10/17 11:10:18;;;;;;;;;11.00;9.33;;;;;20.29;70.59;101898.44;4963115;28;45436;-63
2022/10/17 11:12:51;;;;;;;;;10.00;10.00;;;;;20.38;70.59;101890.66;4990036;28;45535;-63
2022/10/17 11:15:41;;;;;;;;;10.67;9.33;;;;;20.44;70.13;101893.75;4962164;28;45754;-63
2022/10/17 11:18:41;;;;;;;;;14.67;12.67;;;;;20.54;70.28;101885.78;4974592;28;45522;-63
2022/10/17 11:21:32;;;;;;;;;10.67;9.67;;;;;20.60;69.60;101889.91;4945052;28;45378;-63
2022/10/17 11:24:15;;;;;;;;;11.00;9.00;;;;;20.66;69.21;101894.81;4961853;28;45577;-63
2022/10/17 11:26:45;;;;;;;;;12.00;9.00;;;;;20.70;69.88;101895.47;4975446;28;46236;-62
2022/10/17 11:29:12;;;;;;;;;13.00;12.33;;;;;20.73;69.81;101906.06;4960524;28;45741;-63
2022/10/17 11:31:42;;;;;;;;;12.33;11.00;;;;;20.75;69.26;101912.22;4970889;28;45426;-63
2022/10/17 11:34:25;;;;;;;;;13.00;12.00;;;;;20.74;69.55;101914.06;4977338;28;45671;-63
2022/10/17 11:36:56;;;;;;;;;12.00;12.00;;;;;20.73;69.46;101919.56;4978296;28;45574;-63
2022/10/17 11:39:35;;;;;;;;;14.00;12.33;;;;;20.74;69.46;101918.59;4979359;28;45516;-62
2022/10/17 11:42:05;;;;;;;;;15.00;11.33;;;;;20.74;69.61;101913.19;4973284;28;45494;-63
2022/10/17 11:44:35;;;;;;;;;16.33;12.00;;;;;20.70;69.88;101923.38;4977087;28;45380;-62
2022/10/17 11:47:31;;;;;;;;;9.33;9.33;;;;;20.65;69.67;101922.84;4976883;28;47187;-63
2022/10/17 11:50:15;;;;;;;;;9.00;7.33;;;;;20.55;69.58;101914.56;4969487;28;45543;-62
2022/10/17 11:52:55;;;;;;;;;12.67;11.00;;;;;20.53;70.08;101910.22;4977482;28;45632;-62
2022/10/17 11:55:30;;;;;;;;;11.00;11.00;;;;;20.54;69.60;101902.00;4975679;28;45569;-63
2022/10/17 11:58:17;;;;;;;;;11.33;11.33;;;;;20.57;70.00;101918.00;4976827;28;45935;-62
2022/10/17 12:00:55;;;;;;;;;14.00;12.33;;;;;20.60;69.76;101931.28;4976722;28;45401;-62
2022/10/17 12:03:39;;;;;;;;;15.33;11.67;;;;;20.58;70.75;101954.84;4975314;28;45650;-62
2022/10/17 12:06:10;;;;;;;;;11.67;11.67;;;;;20.54;70.18;101966.88;4970805;28;45501;-62
2022/10/17 12:08:51;;;;;;;;;11.00;10.67;;;;;20.52;70.00;101968.84;4976294;28;45443;-62
2022/10/17 12:11:27;;;;;;;;;10.33;9.33;;;;;20.47;70.24;101979.97;4975376;28;45518;-62
2022/10/17 12:13:55;;;;;;;;;10.33;8.67;;;;;20.46;70.15;101980.09;4978214;28;46448;-62
2022/10/17 12:16:20;;;;;;;;;15.33;12.67;;;;;20.46;69.89;101978.25;4977606;28;45465;-62
2022/10/17 12:18:47;;;;;;;;;11.33;10.00;;;;;20.43;70.28;101975.78;4978006;28;46026;-62
2022/10/17 12:21:12;;;;;;;;;11.33;11.33;;;;;20.36;69.90;101973.63;4977037;28;45326;-62
2022/10/17 12:23:39;;;;;;;;;12.67;12.67;;;;;20.30;70.60;101978.50;4977297;28;61038;-63
2022/10/17 12:26:08;;;;;;;;;14.33;13.00;;;;;20.35;70.85;101975.47;4968914;28;45363;-63
2022/10/17 12:28:42;;;;;;;;;12.67;11.00;;;;;20.41;71.15;101966.06;4978480;28;46997;-63
2022/10/17 12:31:11;;;;;;;;;13.67;12.00;;;;;20.43;70.41;101966.81;4971555;28;45481;-63
2022/10/17 12:33:58;;;;;;;;;12.33;10.67;;;;;20.35;70.70;101964.69;4960988;28;45540;-63
2022/10/17 12:36:26;;;;;;;;;9.33;9.33;;;;;20.29;70.91;101960.56;4978425;28;45943;-63
2022/10/17 12:39:00;;;;;;;;;10.67;9.67;;;;;20.27;71.03;101956.25;4985051;28;46205;-63
2022/10/17 12:41:38;;;;;;;;;16.00;11.33;;;;;20.19;70.91;101947.84;4983545;28;45340;-63
2022/10/17 12:44:12;;;;;;;;;10.33;10.33;;;;;20.17;71.09;101948.81;4964752;28;45596;-63
2022/10/17 12:46:50;;;;;;;;;14.00;11.67;;;;;20.16;71.63;101951.66;4978517;28;45520;-63
2022/10/17 12:49:40;;;;;;;;;11.00;9.33;;;;;20.15;70.94;101945.38;4974508;28;46228;-63
2022/10/17 12:52:05;;;;;;;;;10.00;9.00;;;;;20.15;71.03;101947.22;4974780;28;45531;-63
2022/10/17 12:54:37;;;;;;;;;8.67;8.67;;;;;20.14;71.00;101942.78;4978669;28;45345;-63
2022/10/17 12:57:14;;;;;;;;;9.67;9.67;;;;;20.07;71.58;101930.72;4959989;28;45442;-63
2022/10/17 12:59:42;;;;;;;;;20.67;18.33;;;;;20.03;71.96;101937.31;4976005;28;45374;-63
2022/10/17 13:02:16;;;;;;;;;9.67;9.00;;;;;20.03;71.39;101948.97;4976525;28;45341;-63
2022/10/17 13:04:42;;;;;;;;;13.33;11.33;;;;;20.00;71.90;101951.91;4962571;28;45531;-63
2022/10/17 13:07:16;;;;;;;;;9.00;9.00;;;;;19.95;71.48;101965.72;4974681;28;67371;-63
2022/10/17 13:09:42;;;;;;;;;10.00;10.00;;;;;19.92;71.84;101965.06;4969522;28;46167;-63
2022/10/17 13:12:14;;;;;;;;;11.00;11.00;;;;;19.92;72.18;101965.06;4976340;28;73212;-63
2022/10/17 13:14:41;;;;;;;;;11.67;11.67;;;;;19.96;72.57;101966.59;4983713;28;45659;-63
2022/10/17 13:17:20;;;;;;;;;17.00;10.00;;;;;20.03;72.15;101962.47;4958917;28;45453;-63
2022/10/17 13:19:46;;;;;;;;;9.33;8.00;;;;;20.10;71.91;101963.75;4981320;28;46239;-63
2022/10/17 13:22:17;;;;;;;;;12.00;10.67;;;;;20.16;72.38;101957.88;4979837;28;67689;-63
2022/10/17 13:24:43;;;;;;;;;12.67;12.00;;;;;20.21;71.79;101960.28;4980746;28;45466;-63
2022/10/17 13:27:31;;;;;;;;;11.67;10.67;;;;;20.22;71.95;101964.72;4979264;28;45497;-63
2022/10/17 13:30:00;;;;;;;;;14.00;12.33;;;;;20.25;71.83;101972.56;4979604;28;45420;-64
2022/10/17 13:32:38;;;;;;;;;12.33;12.00;;;;;20.21;71.86;101965.69;4977109;28;45618;-63
2022/10/17 13:35:09;;;;;;;;;12.67;12.67;;;;;20.17;71.72;101972.28;4973471;28;45493;-58
2022/10/17 13:37:35;;;;;;;;;10.33;9.67;;;;;20.14;71.89;101964.38;4974503;28;45598;-58
2022/10/17 13:40:00;;;;;;;;;9.67;9.67;;;;;20.10;72.06;101970.97;4978075;28;45468;-58
2022/10/17 13:42:29;;;;;;;;;13.00;13.00;;;;;20.08;72.16;101968.41;4977309;28;46136;-58
2022/10/17 13:44:55;;;;;;;;;10.33;10.33;;;;;20.05;72.03;101954.25;4977342;28;45514;-58
2022/10/17 13:47:33;;;;;;;;;12.67;12.00;;;;;20.03;72.31;101950.81;4978413;28;45492;-57
2022/10/17 13:49:59;;;;;;;;;12.67;11.67;;;;;20.01;72.15;101972.50;4976795;28;46198;-58
2022/10/17 13:52:27;;;;;;;;;11.33;10.00;;;;;19.95;72.25;101990.00;4976828;28;60147;-57
2022/10/17 13:54:53;;;;;;;;;13.00;11.33;;;;;19.90;72.26;102004.81;4969949;28;45589;-57
2022/10/17 13:57:29;;;;;;;;;14.00;12.67;;;;;19.82;73.09;102013.47;4972783;28;47015;-59
2022/10/17 14:00:00;;;;;;;;;14.67;11.33;;;;;19.78;72.79;102018.16;4967948;28;45398;-59
2022/10/17 14:02:27;;;;;;;;;13.00;13.00;;;;;19.69;73.23;102024.22;4971524;28;45536;-59
2022/10/17 14:05:08;;;;;;;;;13.33;12.33;;;;;19.65;73.86;102011.91;4973971;28;45551;-59
2022/10/17 14:07:44;;;;;;;;;14.00;13.00;;;;;19.70;73.93;102003.47;4974587;28;45443;-59
2022/10/17 14:10:24;;;;;;;;;14.67;12.00;;;;;19.75;73.92;102020.22;4975794;28;45769;-60
2022/10/17 14:12:51;;;;;;;;;13.33;13.33;;;;;19.75;74.28;102021.09;4971863;28;45882;-59
2022/10/17 14:15:25;;;;;;;;;15.00;13.00;;;;;19.77;73.78;102032.63;4977285;28;45569;-59
2022/10/17 14:18:06;;;;;;;;;11.33;11.00;;;;;19.81;74.06;102022.50;4976487;28;45531;-59
2022/10/17 14:20:32;;;;;;;;;10.33;8.33;;;;;19.83;73.54;102026.00;4970265;28;45497;-59
2022/10/17 14:22:58;;;;;;;;;15.00;12.00;;;;;19.86;74.17;102016.81;4975731;28;45359;-59
2022/10/17 14:25:28;;;;;;;;;13.33;12.33;;;;;19.86;74.05;101985.28;4957379;28;45500;-59
2022/10/17 14:28:08;;;;;;;;;11.67;10.00;;;;;19.86;74.55;101982.56;4969891;28;45527;-59
2022/10/17 14:30:37;;;;;;;;;23.67;22.00;;;;;19.86;74.47;101982.56;4976032;28;46218;-59
2022/10/17 14:33:06;;;;;;;;;21.33;21.33;;;;;19.83;74.02;101985.50;4961488;28;45714;-59
2022/10/17 14:35:32;;;;;;;;;21.33;19.33;;;;;19.84;74.16;101987.19;4961620;28;45721;-59
2022/10/17 14:38:03;;;;;;;;;17.67;17.67;;;;;19.86;74.93;101982.56;4979270;28;45491;-61
2022/10/17 14:40:31;;;;;;;;;16.33;15.67;;;;;19.88;74.01;101993.25;4975610;28;45394;-61
2022/10/17 14:42:58;;;;;;;;;14.00;14.00;;;;;19.88;74.33;102004.06;4961370;28;47084;-60
2022/10/17 14:45:27;;;;;;;;;14.67;13.33;;;;;19.88;74.14;102010.34;4959257;28;45480;-61
2022/10/17 14:47:55;;;;;;;;;18.00;15.00;;;;;19.89;74.03;102008.50;4975940;28;45558;-61
2022/10/17 14:50:26;;;;;;;;;17.33;12.33;;;;;19.86;74.20;102006.00;4960243;28;45399;-62
2022/10/17 14:53:05;;;;;;;;;11.67;11.67;;;;;19.86;73.93;102014.97;4976237;28;46137;-62
2022/10/17 14:55:32;;;;;;;;;14.00;13.33;;;;;19.86;74.02;102017.66;4976317;28;45375;-62
2022/10/17 14:57:58;;;;;;;;;15.00;13.67;;;;;19.83;74.25;102020.59;4964984;28;45622;-62
2022/10/17 15:00:23;;;;;;;;;12.67;12.33;;;;;19.79;74.24;102033.41;4978727;28;45989;-62
2022/10/17 15:02:50;;;;;;;;;14.33;11.67;;;;;19.76;74.04;102033.59;4977687;28;45536;-62
2022/10/17 15:05:16;;;;;;;;;13.00;11.00;;;;;19.75;74.16;102028.31;4979000;28;45493;-62
2022/10/17 15:07:42;;;;;;;;;13.67;13.67;;;;;19.73;74.33;102033.81;4986894;28;45532;-62
2022/10/17 15:10:34;;;;;;;;;12.00;12.00;;;;;19.71;74.16;102027.69;4981365;28;45413;-62
2022/10/17 15:13:00;;;;;;;;;14.00;13.00;;;;;19.69;74.74;102021.50;4968387;28;46633;-62
2022/10/17 15:15:27;;;;;;;;;11.00;10.00;;;;;19.65;73.74;102034.34;4979258;28;45441;-62
2022/10/17 15:17:53;;;;;;;;;10.67;10.67;;;;;19.61;74.32;102032.00;4979514;28;45464;-62
2022/10/17 15:20:19;;;;;;;;;14.00;12.67;;;;;19.59;74.47;102021.28;4976487;28;45263;-62
2022/10/17 15:22:44;;;;;;;;;14.00;13.00;;;;;19.57;74.32;102015.13;4977150;28;45378;-62
2022/10/17 15:25:10;;;;;;;;;14.00;14.00;;;;;19.56;74.67;102036.84;4979089;28;45483;-62
2022/10/17 15:27:35;;;;;;;;;15.67;14.00;;;;;19.54;74.52;102039.63;4975776;28;45346;-63
2022/10/17 15:30:00;;;;;;;;;15.33;13.33;;;;;19.54;74.52;102041.47;4976415;28;57662;-60
2022/10/17 15:32:26;;;;;;;;;17.67;14.67;;;;;19.51;74.48;102056.88;4976316;28;70459;-60
2022/10/17 15:34:51;;;;;;;;;9.33;9.33;;;;;19.47;74.62;102058.06;4975534;28;46839;-60
2022/10/17 15:37:20;;;;;;;;;17.00;13.33;;;;;19.44;74.71;102043.94;4976633;28;65319;-60
2022/10/17 15:39:54;;;;;;;;;13.00;12.67;;;;;19.44;74.95;102043.94;4977384;28;46203;-60
2022/10/17 15:42:28;;;;;;;;;14.67;12.33;;;;;19.45;74.85;102030.34;4968324;28;45712;-60
2022/10/17 15:44:53;;;;;;;;;19.33;14.33;;;;;19.47;75.24;102035.63;4975024;28;45617;-60
2022/10/17 15:47:29;;;;;;;;;14.33;13.33;;;;;19.49;74.75;102039.09;4975292;28;53918;-59
2022/10/17 15:49:55;;;;;;;;;13.33;13.33;;;;;19.50;75.19;102041.69;4980262;28;45529;-60
2022/10/17 15:52:22;;;;;;;;;10.33;10.00;;;;;19.51;74.75;102037.13;4980125;28;45518;-60
2022/10/17 15:54:47;;;;;;;;;14.00;11.00;;;;;19.53;74.67;102039.72;4974050;28;45570;-60
2022/10/17 15:57:17;;;;;;;;;12.00;12.00;;;;;19.54;74.71;102038.75;4975393;28;54754;-60
2022/10/17 15:59:45;;;;;;;;;14.33;12.67;;;;;19.54;75.17;102031.53;4967040;28;45630;-60
2022/10/17 16:02:15;;;;;;;;;14.00;13.00;;;;;19.55;75.16;102032.41;4980066;28;45881;-60